Time;durP1;ratioP1;P1;durP2;ratioP2;P2;SDS_P1;SDS_P2;PMS_P1;PMS_P2;Temp;Humidity;BMP_temperature;BMP_pressure;BME280_temperature;BME280_humidity;BME280_pressure;Samples;Min_cycle;Max_cycle;Signal;HPM_P1;HPM_P2
2023/05/06 00:02:11;;;;;;;15.40;13.75;;;;;;;10.35;100.00;101558.16;6128757;23;20020;-68
2023/05/06 00:04:37;;;;;;;18.85;15.57;;;;;;;10.38;100.00;101558.16;6154905;23;20028;-73
2023/05/06 00:07:02;;;;;;;19.20;16.08;;;;;;;10.35;100.00;101558.16;6102268;23;20104;-73
2023/05/06 00:09:28;;;;;;;17.58;14.05;;;;;;;10.33;100.00;101554.66;6128477;23;20014;-73
2023/05/06 00:11:53;;;;;;;18.60;14.85;;;;;;;10.34;100.00;101555.56;6104241;23;20012;-73
2023/05/06 00:14:19;;;;;;;19.20;16.05;;;;;;;10.34;100.00;101550.31;6128257;23;20072;-73
2023/05/06 00:16:45;;;;;;;21.33;17.20;;;;;;;10.30;100.00;101546.81;6128625;23;20017;-73
2023/05/06 00:19:11;;;;;;;22.90;17.27;;;;;;;10.27;100.00;101546.81;6128427;23;20044;-73
2023/05/06 00:21:36;;;;;;;23.30;18.08;;;;;;;10.24;100.00;101544.16;6103197;23;20088;-73
2023/05/06 00:24:02;;;;;;;22.50;19.20;;;;;;;10.20;100.00;101542.41;6128584;23;20032;-73
2023/05/06 00:26:27;;;;;;;22.00;18.05;;;;;;;10.19;100.00;101540.69;6128606;23;20112;-67
2023/05/06 00:28:52;;;;;;;24.35;19.42;;;;;;;10.15;100.00;101538.91;6103935;23;20092;-68
2023/05/06 00:31:18;;;;;;;22.58;19.35;;;;;;;10.11;100.00;101538.03;6104177;23;20020;-68
2023/05/06 00:33:43;;;;;;;22.08;18.58;;;;;;;10.05;100.00;101546.75;6104420;23;20428;-67
2023/05/06 00:36:09;;;;;;;23.08;19.55;;;;;;;10.06;100.00;101538.03;6126384;23;20092;-67
2023/05/06 00:38:34;;;;;;;25.58;21.52;;;;;;;10.03;100.00;101540.66;6104160;23;20348;-67
2023/05/06 00:41:00;;;;;;;26.80;22.23;;;;;;;10.01;100.00;101542.41;6128184;23;20044;-67
2023/05/06 00:43:26;;;;;;;29.02;21.80;;;;;;;9.95;100.00;101537.13;6104114;23;20092;-73
2023/05/06 00:45:51;;;;;;;27.90;22.48;;;;;;;9.96;100.00;101530.16;6127530;23;20008;-73
2023/05/06 00:48:17;;;;;;;27.42;22.80;;;;;;;9.93;100.00;101538.88;6103943;23;20016;-73
2023/05/06 00:50:44;;;;;;;28.92;22.52;;;;;;;9.87;100.00;101536.25;6127539;23;20067;-73
2023/05/06 00:53:09;;;;;;;27.52;22.08;;;;;;;9.88;100.00;101540.59;6128052;23;20021;-73
2023/05/06 00:55:36;;;;;;;27.13;22.52;;;;;;;9.81;100.00;101538.84;6128044;23;20010;-73
2023/05/06 00:58:02;;;;;;;28.55;22.30;;;;;;;9.83;100.00;101544.97;6128559;23;20005;-73
2023/05/06 01:00:27;;;;;;;28.08;22.20;;;;;;;9.81;100.00;101538.84;6127518;23;20018;-73
2023/05/06 01:02:53;;;;;;;25.65;21.95;;;;;;;9.74;100.00;101542.31;6103983;23;20456;-73
2023/05/06 01:05:21;;;;;;;28.75;22.67;;;;;;;9.71;100.00;101530.97;6115068;23;20156;-73
2023/05/06 01:07:56;;;;;;;30.08;23.35;;;;;;;9.69;100.00;101530.09;6103288;23;20021;-73
2023/05/06 01:10:35;;;;;;;28.25;22.13;;;;;;;9.65;100.00;101528.31;6154184;23;20365;-73
2023/05/06 01:13:29;;;;;;;26.17;21.08;;;;;;;9.62;100.00;101525.69;6128496;23;20353;-73
2023/05/06 01:15:58;;;;;;;25.92;21.45;;;;;;;9.58;100.00;101531.78;6123277;23;20027;-73
2023/05/06 01:18:26;;;;;;;24.92;21.15;;;;;;;9.51;100.00;101530.03;6129759;23;20013;-73
2023/05/06 01:20:53;;;;;;;28.25;22.00;;;;;;;9.56;100.00;101525.69;6128817;23;20052;-73
2023/05/06 01:23:19;;;;;;;28.55;22.60;;;;;;;9.58;100.00;101537.03;6105564;23;20402;-73
2023/05/06 01:25:45;;;;;;;30.50;22.35;;;;;;;9.60;100.00;101523.97;6130061;23;20009;-73
2023/05/06 01:28:11;;;;;;;23.55;18.52;;;;;;;9.54;100.00;101530.06;6130390;23;20016;-73
2023/05/06 01:31:00;;;;;;;27.58;20.20;;;;;;;9.59;100.00;101525.69;6105254;23;20016;-73
2023/05/06 01:33:35;;;;;;;27.20;21.27;;;;;;;9.62;100.00;101530.94;6130287;23;20329;-73
2023/05/06 01:36:27;;;;;;;17.00;15.20;;;;;;;9.48;100.00;101527.41;6154874;23;20005;-73
2023/05/06 01:39:17;;;;;;;24.33;20.83;;;;;;;9.63;100.00;101523.97;6120760;23;20009;-73
2023/05/06 01:41:46;;;;;;;27.55;22.05;;;;;;;9.58;100.00;101521.31;6129903;23;20384;-73
2023/05/06 01:44:13;;;;;;;31.38;21.58;;;;;;;9.53;100.00;101526.56;6129131;23;20088;-74
2023/05/06 01:46:39;;;;;;;42.63;24.05;;;;;;;9.53;100.00;101525.69;6129468;23;20048;-74
2023/05/06 01:49:10;;;;;;;42.55;22.13;;;;;;;9.46;100.00;101522.16;6130358;23;20096;-73
2023/05/06 01:51:36;;;;;;;;;;;;;;;9.54;100.00;101524.81;6129168;23;20083;-73
2023/05/06 01:54:02;;;;;;;27.75;18.13;;;;;;;9.40;100.00;101532.63;6130098;23;19935;-73
2023/05/06 01:56:31;;;;;;;27.58;21.33;;;;;;;9.43;100.00;101535.25;6156185;23;20001;-73
2023/05/06 01:58:57;;;;;;;30.35;23.92;;;;;;;9.47;100.00;101538.75;6129824;23;20009;-73
2023/05/06 02:01:22;;;;;;;31.55;24.40;;;;;;;9.45;100.00;101530.00;6105216;23;20016;-73
2023/05/06 02:03:48;;;;;;;33.60;25.10;;;;;;;9.46;100.00;101537.84;6105346;23;20104;-73
2023/05/06 02:06:13;;;;;;;23.50;17.45;;;;;;;9.33;100.00;101531.69;6104132;23;20056;-73
2023/05/06 02:08:42;;;;;;;30.67;20.13;;;;;;;9.36;100.00;101539.56;6154244;23;20009;-73
2023/05/06 02:11:07;;;;;;;25.88;20.77;;;;;;;9.35;100.00;101544.78;6105597;23;20017;-73
2023/05/06 02:13:35;;;;;;;40.90;20.08;;;;;;;9.28;100.00;101538.66;6105341;23;20349;-73
2023/05/06 02:16:01;;;;;;;23.38;18.10;;;;;;;9.22;100.00;101549.06;6128650;23;20013;-73
2023/05/06 02:18:26;;;;;;;25.67;21.25;;;;;;;9.23;100.00;101548.22;6105375;23;20043;-73
2023/05/06 02:20:52;;;;;;;23.52;18.88;;;;;;;9.13;100.00;101549.91;6104004;23;20037;-73
2023/05/06 02:23:17;;;;;;;20.65;11.55;;;;;;;8.97;100.00;101543.72;6105384;23;20006;-73
2023/05/06 02:25:42;;;;;;;17.77;12.00;;;;;;;8.94;100.00;101542.84;6104668;23;20014;-73
2023/05/06 02:28:08;;;;;;;22.77;12.65;;;;;;;8.92;100.00;101540.22;6105294;23;20088;-73
2023/05/06 02:30:34;;;;;;;12.88;10.95;;;;;;;8.92;100.00;101545.44;6128784;23;20005;-73
2023/05/06 02:32:59;;;;;;;18.77;14.32;;;;;;;8.90;100.00;101547.16;6105464;23;20395;-73
2023/05/06 02:35:25;;;;;;;20.70;17.08;;;;;;;8.96;100.00;101544.56;6128990;23;20412;-73
2023/05/06 02:37:50;;;;;;;23.85;17.88;;;;;;;8.91;100.00;101541.06;6104804;23;20014;-73
2023/05/06 02:40:16;;;;;;;202.65;26.58;;;;;;;8.93;100.00;101541.94;6128839;23;20010;-73
2023/05/06 02:42:41;;;;;;;150.07;23.98;;;;;;;8.93;100.00;101544.56;6129431;23;20020;-73
2023/05/06 02:45:07;;;;;;;251.93;27.40;;;;;;;8.91;100.00;101543.69;6104735;23;20009;-73
2023/05/06 02:47:32;;;;;;;425.33;34.45;;;;;;;8.83;100.00;101537.53;6105130;23;20340;-73
2023/05/06 02:49:58;;;;;;;32.30;17.85;;;;;;;8.85;100.00;101538.44;6129270;23;20013;-73
2023/05/06 02:52:24;;;;;;;40.58;19.33;;;;;;;8.83;100.00;101532.31;6104191;23;20388;-73
2023/05/06 02:54:49;;;;;;;26.52;19.58;;;;;;;8.87;100.00;101536.69;6105189;23;20015;-73
2023/05/06 02:57:15;;;;;;;28.63;22.75;;;;;;;8.89;100.00;101540.16;6129375;23;20040;-73
2023/05/06 02:59:40;;;;;;;32.22;22.08;;;;;;;8.86;100.00;101540.16;6129054;23;20025;-73
2023/05/06 03:02:06;;;;;;;26.20;20.48;;;;;;;8.82;100.00;101533.16;6129547;23;20012;-73
2023/05/06 03:04:32;;;;;;;24.77;19.92;;;;;;;8.77;100.00;101529.66;6129328;23;20014;-73
2023/05/06 03:06:57;;;;;;;29.45;19.40;;;;;;;8.72;100.00;101528.75;6169985;23;20012;-73
2023/05/06 03:09:23;;;;;;;23.77;18.27;;;;;;;8.74;100.00;101527.03;6134240;23;20027;-73
2023/05/06 03:11:48;;;;;;;23.35;18.45;;;;;;;8.71;100.00;101533.09;6134240;23;20060;-73
2023/05/06 03:14:14;;;;;;;20.42;17.05;;;;;;;8.65;100.00;101523.47;6157729;23;20458;-73
2023/05/06 03:16:40;;;;;;;25.63;20.23;;;;;;;8.68;100.00;101525.25;6134154;23;20008;-73
2023/05/06 03:19:05;;;;;;;33.35;22.42;;;;;;;8.69;100.00;101526.09;6158743;23;20040;-73
2023/05/06 03:21:31;;;;;;;28.60;21.02;;;;;;;8.65;100.00;101530.44;6157354;23;20005;-73
2023/05/06 03:23:56;;;;;;;26.92;21.42;;;;;;;8.61;100.00;101526.94;6133535;23;20016;-73
2023/05/06 03:26:22;;;;;;;31.05;21.75;;;;;;;8.58;100.00;101532.13;6183466;23;20391;-73
2023/05/06 03:28:47;;;;;;;29.48;20.67;;;;;;;8.57;100.00;101538.22;6182400;23;20067;-73
2023/05/06 03:31:13;;;;;;;27.25;19.95;;;;;;;8.53;100.00;101539.03;6158190;23;20056;-73
2023/05/06 03:33:38;;;;;;;24.80;19.58;;;;;;;8.48;100.00;101538.16;6134093;23;20343;-73
2023/05/06 03:36:05;;;;;;;28.75;19.98;;;;;;;8.46;100.00;101532.91;6157414;23;20047;-73
2023/05/06 03:38:30;;;;;;;28.10;21.35;;;;;;;8.45;100.00;101528.56;6158416;23;20005;-73
2023/05/06 03:40:55;;;;;;;27.55;21.25;;;;;;;8.42;100.00;101528.50;6132745;23;20016;-73
2023/05/06 03:43:21;;;;;;;29.55;22.77;;;;;;;8.46;100.00;101534.63;6133796;23;20450;-73
2023/05/06 03:45:46;;;;;;;29.02;21.77;;;;;;;8.40;100.00;101529.34;6132714;23;20013;-73
2023/05/06 03:48:12;;;;;;;29.77;22.02;;;;;;;8.39;100.00;101524.97;6158467;23;20012;-73
2023/05/06 03:50:39;;;;;;;26.05;18.55;;;;;;;8.37;100.00;101524.97;6132571;23;20377;-73
2023/05/06 03:53:05;;;;;;;25.45;18.38;;;;;;;8.36;100.00;101519.72;6158840;23;20012;-73
2023/05/06 03:55:31;;;;;;;24.90;20.58;;;;;;;8.40;100.00;101521.50;6158159;23;20109;-73
2023/05/06 03:57:56;;;;;;;29.25;22.25;;;;;;;8.37;100.00;101517.13;6134019;23;20015;-73
2023/05/06 04:00:22;;;;;;;30.27;22.88;;;;;;;8.39;100.00;101527.59;6131890;23;20020;-73
2023/05/06 04:02:47;;;;;;;33.00;23.88;;;;;;;8.39;100.00;101525.88;6182509;23;20012;-73
2023/05/06 04:05:13;;;;;;;30.60;24.08;;;;;;;8.38;100.00;101525.84;6133440;23;20016;-73
2023/05/06 04:07:38;;;;;;;32.90;23.98;;;;;;;8.38;100.00;101524.09;6132579;23;20025;-73
2023/05/06 04:10:04;;;;;;;32.80;24.85;;;;;;;8.39;100.00;101527.59;6182918;23;20009;-74
2023/05/06 04:12:30;;;;;;;33.78;24.17;;;;;;;8.35;100.00;101533.63;6133767;23;20495;-73
2023/05/06 04:14:55;;;;;;;31.08;22.20;;;;;;;8.34;100.00;101543.22;6132154;23;20028;-73
2023/05/06 04:17:21;;;;;;;27.75;21.77;;;;;;;8.32;100.00;101544.97;6132900;23;20012;-73
2023/05/06 04:19:46;;;;;;;26.63;21.13;;;;;;;8.29;100.00;101544.94;6157879;23;20009;-73
2023/05/06 04:22:11;;;;;;;27.83;20.23;;;;;;;8.30;100.00;101546.66;6132390;23;20009;-73
2023/05/06 04:24:37;;;;;;;24.35;18.77;;;;;;;8.25;100.00;101544.00;6157955;23;20009;-73
2023/05/06 04:27:03;;;;;;;20.48;17.80;;;;;;;8.21;100.00;101537.00;6133440;23;20095;-73
2023/05/06 04:29:28;;;;;;;20.23;16.80;;;;;;;8.27;100.00;101547.50;6133122;23;20005;-73
2023/05/06 04:31:54;;;;;;;22.27;17.75;;;;;;;8.30;100.00;101550.16;6133527;23;20462;-73
2023/05/06 04:34:19;;;;;;;21.13;18.05;;;;;;;8.37;100.00;101552.81;6132976;23;20119;-73
2023/05/06 04:36:46;;;;;;;23.77;18.52;;;;;;;8.43;100.00;101543.31;6181361;23;20020;-73
2023/05/06 04:39:12;;;;;;;21.38;18.23;;;;;;;8.55;100.00;101547.78;6157686;23;20020;-73
2023/05/06 04:41:38;;;;;;;13.48;11.93;;;;;;;8.53;100.00;101540.78;6157955;23;20013;-73
2023/05/06 04:44:05;;;;;;;16.25;13.48;;;;;;;8.59;100.00;101553.91;6157544;23;20009;-73
2023/05/06 04:46:32;;;;;;;14.52;12.50;;;;;;;8.67;100.00;101550.47;6182437;23;20040;-73
2023/05/06 04:48:58;;;;;;;17.88;13.48;;;;;;;8.79;100.00;101546.22;6158305;23;20009;-73
2023/05/06 04:51:23;;;;;;;16.42;14.63;;;;;;;8.88;100.00;101542.78;6156310;23;20012;-73
2023/05/06 04:53:49;;;;;;;15.65;12.75;;;;;;;9.00;100.00;101553.31;6157921;23;20044;-73
2023/05/06 04:56:14;;;;;;;16.60;14.00;;;;;;;9.21;100.00;101555.19;6157601;23;20479;-73
2023/05/06 04:58:40;;;;;;;16.50;14.68;;;;;;;9.32;100.00;101560.47;6183027;23;20012;-73
2023/05/06 05:01:08;;;;;;;22.40;16.23;;;;;;;9.40;100.00;101561.38;6157262;23;20009;-73
2023/05/06 05:03:34;;;;;;;18.10;15.18;;;;;;;9.48;100.00;101561.41;6181773;23;20351;-73
2023/05/06 05:05:59;;;;;;;18.30;15.02;;;;;;;9.56;100.00;101569.31;6129383;23;20023;-73
2023/05/06 05:08:27;;;;;;;17.58;14.95;;;;;;;9.54;100.00;101561.47;6103644;23;20436;-73
2023/05/06 05:10:53;;;;;;;18.38;15.00;;;;;;;9.62;100.00;101570.19;6103416;23;20006;-73
2023/05/06 05:13:20;;;;;;;17.27;14.43;;;;;;;9.69;100.00;101564.09;6128563;23;20018;-73
2023/05/06 05:15:45;;;;;;;18.17;14.93;;;;;;;9.85;100.00;101567.66;6103473;23;20020;-73
2023/05/06 05:18:11;;;;;;;18.33;15.38;;;;;;;9.89;100.00;101569.41;6128576;23;20005;-73
2023/05/06 05:20:36;;;;;;;19.67;15.57;;;;;;;10.00;100.00;101579.06;6127204;23;20089;-73
2023/05/06 05:23:02;;;;;;;19.83;15.65;;;;;;;10.02;100.00;101579.91;6103771;23;20060;-73
2023/05/06 05:25:27;;;;;;;18.23;14.75;;;;;;;10.03;100.00;101586.91;6103661;23;20014;-72
2023/05/06 05:27:52;;;;;;;20.00;14.90;;;;;;;10.04;100.00;101591.25;6128566;23;20009;-72
2023/05/06 05:30:18;;;;;;;17.88;14.85;;;;;;;10.06;100.00;101586.91;6103317;23;20365;-73
2023/05/06 05:32:43;;;;;;;18.75;14.90;;;;;;;10.06;100.00;101585.16;6127443;23;20006;-73
2023/05/06 05:35:09;;;;;;;17.92;14.43;;;;;;;10.15;100.00;101593.91;6128009;23;20048;-73
2023/05/06 05:37:35;;;;;;;17.70;14.20;;;;;;;10.16;100.00;101583.44;6126895;23;20019;-73
2023/05/06 05:40:02;;;;;;;17.58;14.52;;;;;;;10.20;100.00;101594.78;6125953;23;20017;-73
2023/05/06 05:42:29;;;;;;;17.45;14.45;;;;;;;10.25;100.00;101602.69;6127668;23;20041;-74
2023/05/06 05:44:55;;;;;;;21.20;14.40;;;;;;;10.21;100.00;101592.19;6103088;23;20072;-73
2023/05/06 05:47:20;;;;;;;17.67;14.27;;;;;;;10.22;100.00;101600.91;6125618;23;20009;-73
2023/05/06 05:49:46;;;;;;;17.73;13.40;;;;;;;10.30;100.00;101603.53;6102647;23;20005;-73
2023/05/06 05:52:11;;;;;;;20.65;13.93;;;;;;;10.28;100.00;101600.91;6124581;23;20016;-73
2023/05/06 05:54:37;;;;;;;20.02;14.07;;;;;;;10.37;100.00;101606.22;6103342;23;20040;-73
2023/05/06 05:57:02;;;;;;;17.85;13.82;;;;;;;10.40;100.00;101600.09;6126757;23;20500;-73
2023/05/06 05:59:28;;;;;;;17.35;13.27;;;;;;;10.39;100.00;101604.47;6103175;23;20101;-73
2023/05/06 06:01:53;;;;;;;15.15;12.27;;;;;;;10.47;100.00;101603.59;6103490;23;20013;-73
2023/05/06 06:04:19;;;;;;;17.98;13.30;;;;;;;10.59;100.00;101603.63;6105094;23;20344;-73
2023/05/06 06:06:45;;;;;;;16.65;12.82;;;;;;;10.66;100.00;101610.59;6147173;23;20105;-73
2023/05/06 06:09:11;;;;;;;17.42;12.38;;;;;;;10.69;100.00;101605.38;6159375;23;20009;-73
2023/05/06 06:11:36;;;;;;;17.13;13.20;;;;;;;10.75;100.00;101605.34;6157508;23;20005;-73
2023/05/06 06:14:02;;;;;;;17.33;12.55;;;;;;;10.88;100.00;101608.84;6183322;23;20013;-73
2023/05/06 06:16:27;;;;;;;15.15;12.20;;;;;;;10.94;100.00;101607.09;6158110;23;20388;-73
2023/05/06 06:18:53;;;;;;;15.13;12.43;;;;;;;10.99;100.00;101603.59;6133902;23;20028;-73
2023/05/06 06:21:18;;;;;;;17.40;11.77;;;;;;;11.04;100.00;101596.59;6157974;23;20090;-73
2023/05/06 06:23:44;;;;;;;14.77;10.68;;;;;;;11.07;100.00;101596.56;6133106;23;20012;-73
2023/05/06 06:26:09;;;;;;;15.45;11.45;;;;;;;11.24;100.00;101599.16;6158740;23;20031;-73
2023/05/06 06:28:37;;;;;;;16.45;12.27;;;;;;;11.57;100.00;101601.72;6134681;23;20017;-73
2023/05/06 06:31:02;;;;;;;15.02;11.50;;;;;;;11.73;100.00;101605.13;6158810;23;20013;-73
2023/05/06 06:33:28;;;;;;;15.10;10.38;;;;;;;12.00;100.00;101601.53;6134654;23;20388;-73
2023/05/06 06:35:53;;;;;;;18.20;10.80;;;;;;;12.27;100.00;101611.00;6132880;23;20025;-73
2023/05/06 06:38:19;;;;;;;19.63;11.80;;;;;;;12.76;100.00;101604.50;6134413;23;20013;-73
2023/05/06 06:40:44;;;;;;;12.93;9.02;;;;;;;12.81;95.89;101602.72;6158681;23;20036;-73
2023/05/06 06:43:10;;;;;;;14.07;10.13;;;;;;;13.06;95.73;101615.63;6183213;23;20043;-73
2023/05/06 06:45:36;;;;;;;13.43;9.68;;;;;;;13.26;93.75;101609.28;6133795;23;20035;-73
2023/05/06 06:48:01;;;;;;;14.10;9.98;;;;;;;13.74;98.50;101612.28;6158729;23;20013;-73
2023/05/06 06:50:26;;;;;;;13.15;10.25;;;;;;;13.88;93.07;101608.59;6158009;23;20005;-73
2023/05/06 06:52:52;;;;;;;11.95;9.30;;;;;;;14.29;92.65;101615.06;6134120;23;20028;-73
2023/05/06 06:55:17;;;;;;;13.23;8.70;;;;;;;14.35;87.89;101613.19;6182332;23;20009;-73
2023/05/06 06:57:43;;;;;;;13.85;8.82;;;;;;;14.51;87.74;101627.03;6133746;23;20009;-68
2023/05/06 07:00:09;;;;;;;13.68;8.52;;;;;;;14.70;87.60;101618.84;6158112;23;20016;-68
2023/05/06 07:02:34;;;;;;;12.32;8.90;;;;;;;15.03;88.49;101624.44;6158788;23;20112;-68
2023/05/06 07:05:00;;;;;;;11.05;8.30;;;;;;;14.81;83.06;101624.81;6158397;23;20195;-68
2023/05/06 07:07:25;;;;;;;11.93;8.73;;;;;;;14.98;84.91;101628.91;6132668;23;20028;-67
2023/05/06 07:09:51;;;;;;;11.48;9.98;;;;;;;15.46;89.01;101622.75;6158635;23;20005;-68
2023/05/06 07:12:16;;;;;;;11.82;8.70;;;;;;;15.29;83.00;101616.03;6133813;23;20016;-68
2023/05/06 07:14:41;;;;;;;11.45;8.35;;;;;;;15.24;83.60;101629.34;6157842;23;20348;-68
2023/05/06 07:17:07;;;;;;;9.82;8.50;;;;;;;15.39;83.26;101619.38;6134017;23;20454;-68
2023/05/06 07:19:32;;;;;;;13.98;9.50;;;;;;;15.85;85.40;101626.38;6158768;23;20009;-68
2023/05/06 07:21:58;;;;;;;14.38;9.70;;;;;;;16.57;87.86;101621.22;6157416;23;20071;-68
2023/05/06 07:24:24;;;;;;;12.68;8.57;;;;;;;16.41;79.84;101633.09;6182954;23;20005;-68
2023/05/06 07:26:49;;;;;;;12.02;8.80;;;;;;;16.54;80.81;101636.31;6158935;23;20412;-68
2023/05/06 07:29:14;;;;;;;14.77;9.50;;;;;;;16.62;80.13;101640.53;6158168;23;20017;-68
2023/05/06 07:31:40;;;;;;;11.15;8.32;;;;;;;16.71;78.22;101639.41;6157863;23;20156;-68
2023/05/06 07:34:06;;;;;;;12.45;8.30;;;;;;;16.52;77.36;101644.28;6183086;23;20009;-68
2023/05/06 07:36:39;;;;;;;13.52;9.07;;;;;;;16.41;77.89;101646.31;6180785;23;20108;-68
2023/05/06 07:39:05;;;;;;;11.18;8.88;;;;;;;16.48;78.32;101637.34;6159493;23;20481;-69
2023/05/06 07:41:31;;;;;;;13.15;8.80;;;;;;;16.79;78.35;101636.56;6158381;23;20406;-68
2023/05/06 07:43:56;;;;;;;11.00;8.77;;;;;;;17.16;77.72;101635.66;6157824;23;20036;-68
2023/05/06 07:46:22;;;;;;;13.63;8.57;;;;;;;17.03;75.34;101634.25;6157477;23;20374;-69
2023/05/06 07:48:50;;;;;;;13.82;9.57;;;;;;;17.14;75.22;101638.34;6157970;23;20005;-68
2023/05/06 07:51:15;;;;;;;12.00;9.65;;;;;;;17.59;76.41;101633.63;6157518;23;20100;-68
2023/05/06 07:53:41;;;;;;;14.60;10.70;;;;;;;17.93;76.76;101638.84;6158530;23;20036;-68
2023/05/06 07:56:06;;;;;;;14.60;10.85;;;;;;;18.16;77.00;101630.19;6182980;23;20005;-68
2023/05/06 07:58:31;;;;;;;15.00;9.90;;;;;;;17.97;71.76;101637.84;6183378;23;20055;-68
2023/05/06 08:00:57;;;;;;;14.77;9.68;;;;;;;18.06;73.33;101638.44;6157465;23;20364;-68
2023/05/06 08:03:23;;;;;;;14.13;9.90;;;;;;;18.08;71.76;101641.94;6157732;23;20284;-68
2023/05/06 08:05:49;;;;;;;12.93;10.02;;;;;;;18.08;72.90;101640.13;6156725;23;20019;-68
2023/05/06 08:08:15;;;;;;;12.02;9.48;;;;;;;17.74;71.40;101633.19;6133580;23;20536;-68
2023/05/06 08:10:42;;;;;;;15.35;9.88;;;;;;;17.72;72.25;101647.38;6156582;23;20012;-68
2023/05/06 08:13:08;;;;;;;12.50;9.07;;;;;;;17.37;71.90;101643.94;6183059;23;20063;-68
2023/05/06 08:15:33;;;;;;;12.43;10.20;;;;;;;17.19;73.11;101648.81;6132756;23;20344;-68
2023/05/06 08:17:59;;;;;;;16.20;10.73;;;;;;;17.17;73.83;101648.00;6132493;23;20012;-68
2023/05/06 08:20:24;;;;;;;12.95;9.85;;;;;;;17.45;75.96;101642.78;6133111;23;20023;-69
2023/05/06 08:22:50;;;;;;;13.38;10.68;;;;;;;17.39;73.15;101636.81;6130817;23;20416;-69
2023/05/06 08:25:15;;;;;;;14.73;11.13;;;;;;;17.61;72.99;101645.91;6133045;23;20016;-68
2023/05/06 08:27:41;;;;;;;15.50;11.57;;;;;;;17.73;71.58;101643.78;6133117;23;20108;-68
2023/05/06 08:30:07;;;;;;;14.02;11.25;;;;;;;18.07;72.02;101637.53;6157246;23;20009;-68
2023/05/06 08:32:32;;;;;;;14.02;10.77;;;;;;;17.86;68.91;101644.31;6132662;23;20444;-68
2023/05/06 08:34:59;;;;;;;14.25;10.35;;;;;;;17.94;70.25;101640.59;6133143;23;20005;-68
2023/05/06 08:37:25;;;;;;;13.70;10.18;;;;;;;17.54;69.11;101643.47;6132860;23;20411;-68
2023/05/06 08:39:50;;;;;;;13.32;9.25;;;;;;;17.83;70.52;101632.03;6133265;23;20005;-68
2023/05/06 08:42:16;;;;;;;15.57;10.43;;;;;;;18.07;72.45;101634.88;6182427;23;20012;-68
2023/05/06 08:44:42;;;;;;;11.25;8.15;;;;;;;17.88;67.29;101626.59;6156864;23;20317;-68
2023/05/06 08:47:08;;;;;;;11.77;7.95;;;;;;;17.82;67.29;101636.44;6182219;23;20001;-68
2023/05/06 08:49:34;;;;;;;8.13;6.60;;;;;;;17.77;67.14;101626.91;6157916;23;20015;-68
2023/05/06 08:52:04;;;;;;;7.43;5.63;;;;;;;17.93;66.98;101638.84;6181669;23;20005;-68
2023/05/06 08:54:33;;;;;;;8.43;6.40;;;;;;;17.95;66.90;101621.09;6182587;23;20008;-68
2023/05/06 08:57:02;;;;;;;10.43;7.60;;;;;;;17.96;66.94;101630.78;6157955;23;20152;-68
2023/05/06 08:59:29;;;;;;;9.65;7.07;;;;;;;17.57;66.57;101631.00;6181649;23;20092;-68
2023/05/06 09:01:55;;;;;;;8.60;6.05;;;;;;;17.76;66.20;101623.38;6155811;23;20443;-68
2023/05/06 09:04:21;;;;;;;9.57;5.72;;;;;;;18.00;67.92;101628.88;6182656;23;20016;-68
2023/05/06 09:06:46;;;;;;;10.52;5.75;;;;;;;18.30;66.54;101616.50;6181313;23;20137;-68
2023/05/06 09:09:13;;;;;;;8.05;5.30;;;;;;;18.56;66.75;101628.06;6181397;23;20009;-68
2023/05/06 09:11:39;;;;;;;8.40;6.25;;;;;;;18.69;67.88;101612.56;6182385;23;19997;-69
2023/05/06 09:14:15;;;;;;;9.95;7.00;;;;;;;18.65;64.86;101618.91;6156846;23;20021;-68
2023/05/06 09:16:45;;;;;;;9.68;6.22;;;;;;;18.96;65.74;101618.75;6182144;23;20005;-68
2023/05/06 09:19:11;;;;;;;8.50;5.28;;;;;;;18.82;61.07;101607.69;6158376;23;20020;-68
2023/05/06 09:21:42;;;;;;;8.52;5.05;;;;;;;19.11;64.57;101609.41;6180260;23;20080;-68
2023/05/06 09:24:09;;;;;;;5.60;3.72;;;;;;;19.29;60.41;101609.66;6156464;23;20013;-68
2023/05/06 09:26:36;;;;;;;7.32;5.10;;;;;;;19.35;60.19;101605.00;6155078;23;20379;-68
2023/05/06 09:29:03;;;;;;;7.70;4.95;;;;;;;19.31;61.60;101603.38;6156929;23;20009;-68
2023/05/06 09:31:28;;;;;;;6.93;2.90;;;;;;;19.39;57.52;101608.38;6182528;23;20466;-68
2023/05/06 09:33:57;;;;;;;5.03;2.65;;;;;;;19.89;60.17;101615.44;6131552;23;20101;-68
2023/05/06 09:36:24;;;;;;;7.18;3.67;;;;;;;19.80;57.82;101614.00;6179664;23;20075;-68
2023/05/06 09:38:50;;;;;;;6.25;3.67;;;;;;;19.65;55.74;101602.13;6155023;23;20009;-68
2023/05/06 09:41:19;;;;;;;4.40;3.17;;;;;;;19.80;57.95;101618.47;6157997;23;20020;-68
2023/05/06 09:43:47;;;;;;;4.38;3.28;;;;;;;19.76;53.34;101612.34;6182257;23;20427;-68
2023/05/06 09:46:14;;;;;;;4.55;2.50;;;;;;;19.68;55.00;101614.41;6157692;23;20455;-68
2023/05/06 09:48:40;;;;;;;4.75;2.55;;;;;;;19.56;53.25;101605.13;6182541;23;20001;-67
2023/05/06 09:51:06;;;;;;;4.25;2.55;;;;;;;19.47;52.06;101605.47;6182257;23;20388;-68
2023/05/06 09:53:36;;;;;;;6.90;2.90;;;;;;;19.58;54.00;101610.38;6183150;23;20435;-68
2023/05/06 09:56:03;;;;;;;5.35;3.13;;;;;;;19.84;57.58;101609.41;6160177;23;20321;-68
2023/05/06 09:58:30;;;;;;;7.00;3.92;;;;;;;19.85;57.60;101611.16;6158732;23;20009;-68
2023/05/06 10:00:56;;;;;;;6.70;3.80;;;;;;;19.57;54.56;101606.84;6181995;23;20036;-68
2023/05/06 10:03:22;;;;;;;5.53;3.83;;;;;;;19.76;55.86;101600.84;6181181;23;20031;-68
2023/05/06 10:05:48;;;;;;;6.15;4.03;;;;;;;20.01;58.22;101599.00;6157907;23;20550;-68
2023/05/06 10:08:17;;;;;;;4.57;3.22;;;;;;;20.22;57.57;101599.91;6183553;23;20381;-68
2023/05/06 10:10:43;;;;;;;4.88;3.20;;;;;;;20.12;55.01;101595.91;6180457;23;20009;-68
2023/05/06 10:13:11;;;;;;;5.88;3.15;;;;;;;19.99;54.00;101600.84;6156651;23;20281;-68
2023/05/06 10:15:37;;;;;;;9.63;3.88;;;;;;;20.10;55.32;101597.78;6157560;23;20013;-68
2023/05/06 10:18:06;;;;;;;5.53;3.42;;;;;;;20.29;55.35;101599.69;6181006;23;20103;-69
2023/05/06 10:20:34;;;;;;;4.63;3.63;;;;;;;20.23;53.62;101591.03;6180604;23;20009;-68
2023/05/06 10:23:11;;;;;;;6.95;3.40;;;;;;;20.46;55.69;101580.34;6182885;23;20033;-67
2023/05/06 10:25:42;;;;;;;5.85;3.58;;;;;;;20.80;57.57;101581.63;6182917;23;20455;-69
2023/05/06 10:28:09;;;;;;;5.43;2.67;;;;;;;21.02;53.79;101576.22;6183854;23;20088;-68
2023/05/06 10:30:36;;;;;;;4.45;2.40;;;;;;;20.52;51.93;101580.13;6183029;23;20342;-68
2023/05/06 10:33:06;;;;;;;4.28;2.42;;;;;;;20.04;53.05;101572.28;6158606;23;20332;-69
2023/05/06 10:35:49;;;;;;;3.97;2.50;;;;;;;20.12;54.75;101576.41;6182343;23;20487;-68
2023/05/06 10:38:27;;;;;;;5.55;3.00;;;;;;;20.64;57.06;101574.25;6183323;23;20531;-68
2023/05/06 10:40:54;;;;;;;5.50;3.42;;;;;;;20.96;57.97;101569.41;6182407;23;20001;-68
2023/05/06 10:43:31;;;;;;;5.00;3.00;;;;;;;20.81;54.01;101570.91;6134422;23;20272;-68
2023/05/06 10:46:10;;;;;;;5.63;2.80;;;;;;;20.45;54.16;101568.84;6182688;23;20013;-68
2023/05/06 10:48:37;;;;;;;4.95;2.22;;;;;;;20.33;53.62;101558.69;6183089;23;20359;-68
2023/05/06 10:51:15;;;;;;;5.70;3.28;;;;;;;20.50;54.76;101558.00;6155710;23;20488;-68
2023/05/06 10:54:03;;;;;;;6.45;3.10;;;;;;;20.73;57.90;101557.94;6182627;23;20008;-68
2023/05/06 10:56:36;;;;;;;6.07;2.80;;;;;;;20.98;57.99;101550.66;6157137;23;20398;-67
2023/05/06 10:59:10;;;;;;;4.40;2.30;;;;;;;21.10;56.28;101555.44;6180947;23;20437;-68
2023/05/06 11:01:37;;;;;;;5.15;2.58;;;;;;;21.00;52.69;101554.97;6158359;23;20018;-68
2023/05/06 11:04:10;;;;;;;4.55;2.50;;;;;;;21.02;51.87;101558.47;6158868;23;20040;-68
2023/05/06 11:06:47;;;;;;;5.30;2.97;;;;;;;20.88;52.45;101555.53;6157726;23;20005;-68
2023/05/06 11:09:21;;;;;;;3.15;1.90;;;;;;;20.36;53.73;101559.44;6183245;23;20088;-68
2023/05/06 11:12:00;;;;;;;3.90;2.25;;;;;;;20.13;53.29;101552.41;6182634;23;20001;-68